Time;durP1;ratioP1;P1;durP2;ratioP2;P2;SDS_P1;SDS_P2;PMS_P1;PMS_P2;Temp;Humidity;BMP_temperature;BMP_pressure;BME280_temperature;BME280_humidity;BME280_pressure;Samples;Min_cycle;Max_cycle;Signal;HPM_P1;HPM_P2
2023/07/06 00:00:16;;;;;;;5.95;3.83;;;;;;;;;;5114696;28;20044;-83
2023/07/06 00:02:43;;;;;;;4.85;4.18;;;;;;;;;;5100259;28;20047;-83
2023/07/06 00:05:11;;;;;;;5.22;3.95;;;;;;;;;;5116918;28;20039;-83
2023/07/06 00:07:37;;;;;;;4.72;4.30;;;;;;;;;;5100163;28;20051;-83
2023/07/06 00:10:04;;;;;;;4.72;4.18;;;;;;;;;;5117067;28;20039;-83
2023/07/06 00:12:30;;;;;;;4.60;4.20;;;;;;;;;;5099835;28;20075;-83
2023/07/06 00:14:57;;;;;;;4.20;3.60;;;;;;;;;;5117485;28;20515;-83
2023/07/06 00:17:23;;;;;;;5.30;4.45;;;;;;;;;;5116654;28;20043;-83
2023/07/06 00:19:49;;;;;;;6.10;4.15;;;;;;;;;;5116875;28;20126;-83
2023/07/06 00:22:15;;;;;;;4.50;4.10;;;;;;;;;;5116677;28;20047;-83
2023/07/06 00:24:42;;;;;;;4.32;3.92;;;;;;;;;;5099965;28;20066;-82
2023/07/06 00:27:08;;;;;;;4.97;3.65;;;;;;;;;;5100484;28;20058;-83
2023/07/06 00:29:35;;;;;;;3.97;3.58;;;;;;;;;;5116993;28;20048;-83
2023/07/06 00:32:25;;;;;;;5.78;3.97;;;;;;;;;;5099808;28;20044;-83
2023/07/06 00:34:51;;;;;;;4.05;3.60;;;;;;;;;;5116078;28;20104;-82
2023/07/06 00:37:17;;;;;;;5.45;3.90;;;;;;;;;;5116584;28;20052;-82
2023/07/06 00:39:43;;;;;;;4.05;3.70;;;;;;;;;;5116558;28;20040;-83
2023/07/06 00:42:16;;;;;;;3.40;3.13;;;;;;;;;;5099443;28;20436;-82
2023/07/06 00:44:57;;;;;;;3.83;3.53;;;;;;;;;;5115746;28;20051;-83
2023/07/06 00:47:42;;;;;;;3.97;3.67;;;;;;;;;;5116373;28;20078;-83
2023/07/06 00:50:13;;;;;;;3.45;3.25;;;;;;;;;;5116212;28;20050;-83
2023/07/06 00:52:48;;;;;;;4.43;3.50;;;;;;;;;;5116874;28;20047;-82
2023/07/06 00:55:15;;;;;;;3.95;3.70;;;;;;;;;;5099272;28;20047;-82
2023/07/06 00:57:42;;;;;;;4.35;3.97;;;;;;;;;;5116697;28;20135;-84
2023/07/06 01:00:08;;;;;;;3.85;3.47;;;;;;;;;;5099082;28;20058;-83
2023/07/06 01:02:38;;;;;;;4.15;3.95;;;;;;;;;;5099104;28;20090;-82
2023/07/06 01:05:05;;;;;;;4.47;3.83;;;;;;;;;;5115594;28;20040;-83
2023/07/06 01:07:32;;;;;;;4.07;3.78;;;;;;;;;;5117230;28;20157;-83
2023/07/06 01:09:59;;;;;;;3.40;3.20;;;;;;;;;;5116914;28;20079;-82
2023/07/06 01:12:25;;;;;;;4.05;3.72;;;;;;;;;;5099028;28;20046;-83
2023/07/06 01:14:52;;;;;;;4.88;3.47;;;;;;;;;;5116245;28;20064;-83
2023/07/06 01:17:23;;;;;;;3.72;3.50;;;;;;;;;;5115681;28;20086;-82
2023/07/06 01:19:51;;;;;;;4.38;3.90;;;;;;;;;;5116823;28;20101;-82
2023/07/06 01:22:24;;;;;;;4.40;3.65;;;;;;;;;;5115927;28;20039;-83
2023/07/06 01:25:09;;;;;;;4.53;4.13;;;;;;;;;;5116103;28;20589;-83
2023/07/06 01:27:36;;;;;;;3.80;3.45;;;;;;;;;;5098623;28;20047;-82
2023/07/06 01:30:02;;;;;;;4.18;3.80;;;;;;;;;;5098685;28;20051;-83
2023/07/06 01:32:32;;;;;;;4.35;4.00;;;;;;;;;;5116706;28;20053;-82
2023/07/06 01:35:01;;;;;;;5.32;4.82;;;;;;;;;;5115071;28;20381;-83
2023/07/06 01:37:31;;;;;;;5.28;4.75;;;;;;;;;;5115511;28;20079;-83
2023/07/06 01:39:57;;;;;;;6.28;4.35;;;;;;;;;;5115283;28;20047;-82
2023/07/06 01:42:26;;;;;;;4.70;4.30;;;;;;;;;;5098173;28;20514;-82
2023/07/06 01:44:55;;;;;;;5.47;3.75;;;;;;;;;;5097367;28;20366;-83
2023/07/06 01:47:21;;;;;;;4.63;4.18;;;;;;;;;;5115313;28;20043;-82
2023/07/06 01:49:49;;;;;;;4.78;4.38;;;;;;;;;;5115157;28;20098;-82
2023/07/06 01:52:15;;;;;;;4.57;3.97;;;;;;;;;;5114993;28;20047;-83
2023/07/06 01:54:43;;;;;;;4.40;4.13;;;;;;;;;;5115731;28;20047;-82
2023/07/06 01:57:14;;;;;;;5.70;4.15;;;;;;;;;;5114791;28;20147;-82
2023/07/06 01:59:46;;;;;;;4.53;4.18;;;;;;;;;;5097903;28;20480;-82
2023/07/06 02:02:12;;;;;;;5.35;4.50;;;;;;;;;;5098447;28;20047;-83
2023/07/06 02:04:43;;;;;;;5.05;4.55;;;;;;;;;;5116202;28;20122;-82
2023/07/06 02:07:10;;;;;;;5.25;4.88;;;;;;;;;;5115082;28;20043;-82
2023/07/06 02:09:46;;;;;;;5.15;4.68;;;;;;;;;;5097984;28;20544;-83
2023/07/06 02:12:13;;;;;;;5.13;4.65;;;;;;;;;;5097753;28;20047;-82
2023/07/06 02:14:48;;;;;;;4.80;4.40;;;;;;;;;;5115902;28;20051;-82
2023/07/06 02:17:13;;;;;;;;;;;;;;;;;;5115460;28;20054;-82
2023/07/06 02:19:40;;;;;;;6.18;4.57;;;;;;;;;;5114735;28;19923;-82
2023/07/06 02:22:07;;;;;;;4.82;4.35;;;;;;;;;;5114498;28;20058;-82
2023/07/06 02:24:33;;;;;;;4.68;4.28;;;;;;;;;;5096809;28;20480;-82
2023/07/06 02:26:59;;;;;;;6.95;4.97;;;;;;;;;;5097559;28;20051;-82
2023/07/06 02:29:25;;;;;;;7.43;4.90;;;;;;;;;;5115280;28;20043;-82
2023/07/06 02:31:51;;;;;;;5.28;4.85;;;;;;;;;;5114249;28;20054;-82
2023/07/06 02:34:26;;;;;;;5.75;5.13;;;;;;;;;;5114206;28;20043;-82
2023/07/06 02:36:53;;;;;;;6.95;5.43;;;;;;;;;;5113913;28;20043;-83
2023/07/06 02:39:23;;;;;;;7.90;5.25;;;;;;;;;;5114083;28;20047;-82
2023/07/06 02:41:52;;;;;;;5.65;5.20;;;;;;;;;;5114467;28;20099;-83
2023/07/06 02:44:19;;;;;;;5.65;5.15;;;;;;;;;;5114077;28;20047;-82
2023/07/06 02:46:46;;;;;;;8.02;5.50;;;;;;;;;;5112858;28;20048;-82
2023/07/06 02:49:13;;;;;;;6.05;5.40;;;;;;;;;;5113278;28;20043;-83
2023/07/06 02:51:40;;;;;;;5.97;5.45;;;;;;;;;;5096219;28;20381;-83
2023/07/06 02:54:06;;;;;;;6.43;5.90;;;;;;;;;;5113741;28;20048;-82
2023/07/06 02:56:33;;;;;;;5.95;5.45;;;;;;;;;;5113132;28;20055;-81
2023/07/06 02:58:59;;;;;;;6.43;5.28;;;;;;;;;;5115033;28;20172;-82
2023/07/06 03:01:25;;;;;;;6.20;5.45;;;;;;;;;;5113898;28;20039;-82
2023/07/06 03:03:51;;;;;;;6.10;5.50;;;;;;;;;;5096913;28;20063;-83
2023/07/06 03:06:18;;;;;;;7.57;5.45;;;;;;;;;;5114521;28;20043;-82
2023/07/06 03:08:45;;;;;;;7.80;5.28;;;;;;;;;;5097091;28;20047;-82
2023/07/06 03:11:11;;;;;;;7.78;5.35;;;;;;;;;;5113586;28;20086;-82
2023/07/06 03:13:37;;;;;;;7.55;5.90;;;;;;;;;;5114132;28;20492;-82
2023/07/06 03:16:05;;;;;;;7.63;5.55;;;;;;;;;;5113149;28;20050;-82
2023/07/06 03:18:31;;;;;;;5.80;5.15;;;;;;;;;;5096608;28;20047;-82
2023/07/06 03:20:57;;;;;;;6.18;5.60;;;;;;;;;;5113628;28;20130;-82
2023/07/06 03:23:23;;;;;;;6.40;5.82;;;;;;;;;;5113319;28;20044;-82
2023/07/06 03:25:53;;;;;;;8.02;6.60;;;;;;;;;;5113279;28;20258;-82
2023/07/06 03:28:20;;;;;;;12.00;6.78;;;;;;;;;;5113300;28;20104;-82
2023/07/06 03:30:53;;;;;;;8.02;6.15;;;;;;;;;;5113246;28;20051;-83
2023/07/06 03:33:19;;;;;;;13.02;6.38;;;;;;;;;;5114495;28;20043;-82
2023/07/06 03:35:45;;;;;;;6.63;6.00;;;;;;;;;;5113064;28;20101;-82
2023/07/06 03:38:12;;;;;;;7.82;6.32;;;;;;;;;;5079671;28;20480;-82
2023/07/06 03:40:38;;;;;;;9.35;6.53;;;;;;;;;;5113491;28;20074;-83
2023/07/06 03:43:06;;;;;;;7.82;7.10;;;;;;;;;;5114368;28;20043;-82
2023/07/06 03:45:32;;;;;;;9.18;6.07;;;;;;;;;;5079087;28;20050;-82
2023/07/06 03:47:59;;;;;;;7.60;6.57;;;;;;;;;;5096183;28;20100;-83
2023/07/06 03:50:25;;;;;;;11.43;6.90;;;;;;;;;;5113653;28;20488;-83
2023/07/06 03:52:51;;;;;;;9.10;6.72;;;;;;;;;;5096164;28;20057;-83
2023/07/06 03:55:19;;;;;;;9.73;6.78;;;;;;;;;;5095629;28;20043;-83
2023/07/06 03:57:47;;;;;;;9.45;7.13;;;;;;;;;;5112199;28;20450;-83
2023/07/06 04:00:24;;;;;;;9.25;7.88;;;;;;;;;;5113029;28;20051;-83
2023/07/06 04:02:52;;;;;;;13.00;8.15;;;;;;;;;;5112925;28;20051;-83
2023/07/06 04:05:20;;;;;;;11.38;9.43;;;;;;;;;;5112770;28;20066;-83
2023/07/06 04:07:52;;;;;;;10.52;8.73;;;;;;;;;;5113982;28;20043;-82
2023/07/06 04:10:18;;;;;;;11.23;8.43;;;;;;;;;;5096384;28;20079;-82
2023/07/06 04:12:44;;;;;;;12.02;8.35;;;;;;;;;;5113176;28;20043;-83
2023/07/06 04:15:10;;;;;;;10.00;9.00;;;;;;;;;;5078953;28;20051;-83
2023/07/06 04:17:37;;;;;;;13.63;9.32;;;;;;;;;;5112597;28;20051;-83
2023/07/06 04:20:14;;;;;;;10.25;9.15;;;;;;;;;;5111965;28;20186;-83
2023/07/06 04:22:40;;;;;;;11.95;9.55;;;;;;;;;;5095372;28;20048;-83
2023/07/06 04:25:07;;;;;;;13.07;9.63;;;;;;;;;;5112593;28;20400;-83
2023/07/06 04:27:33;;;;;;;11.20;9.68;;;;;;;;;;5112465;28;20046;-83
2023/07/06 04:29:59;;;;;;;10.38;9.38;;;;;;;;;;5112910;28;20536;-83
2023/07/06 04:32:31;;;;;;;12.57;9.93;;;;;;;;;;5112689;28;20047;-83
2023/07/06 04:34:57;;;;;;;13.30;9.93;;;;;;;;;;5112802;28;20047;-83
2023/07/06 04:37:24;;;;;;;11.82;10.70;;;;;;;;;;5079085;28;20055;-83
2023/07/06 04:39:50;;;;;;;13.13;10.98;;;;;;;;;;5112957;28;20051;-84
2023/07/06 04:42:16;;;;;;;11.77;10.40;;;;;;;;;;5113643;28;20130;-83
2023/07/06 04:44:44;;;;;;;14.35;10.32;;;;;;;;;;5113610;28;20071;-83
2023/07/06 04:47:10;;;;;;;14.27;11.60;;;;;;;;;;5078830;28;20048;-83
2023/07/06 04:49:36;;;;;;;11.48;10.23;;;;;;;;;;5099653;28;20131;-83
2023/07/06 04:52:02;;;;;;;12.88;10.77;;;;;;;;;;5116452;28;20052;-83
2023/07/06 04:54:30;;;;;;;12.65;11.38;;;;;;;;;;5116434;28;20051;-83
2023/07/06 04:56:56;;;;;;;12.18;10.10;;;;;;;;;;5117123;28;20071;-83
2023/07/06 04:59:22;;;;;;;12.15;10.55;;;;;;;;;;5117241;28;20044;-83
2023/07/06 05:01:51;;;;;;;14.35;10.43;;;;;;;;;;5115779;28;20051;-84
2023/07/06 05:04:18;;;;;;;11.20;9.85;;;;;;;;;;5115972;28;20431;-82
2023/07/06 05:06:45;;;;;;;12.68;10.10;;;;;;;;;;5115902;28;20093;-83
2023/07/06 05:09:12;;;;;;;13.15;11.15;;;;;;;;;;5115813;28;20047;-83
2023/07/06 05:11:38;;;;;;;10.50;9.48;;;;;;;;;;5116249;28;20048;-82
2023/07/06 05:14:05;;;;;;;12.68;9.32;;;;;;;;;;5099036;28;20480;-83
2023/07/06 05:16:31;;;;;;;13.55;10.00;;;;;;;;;;5098637;28;20087;-83
2023/07/06 05:18:57;;;;;;;11.57;9.38;;;;;;;;;;5098592;28;20047;-82
2023/07/06 05:21:24;;;;;;;12.18;9.32;;;;;;;;;;5116882;28;20052;-82
2023/07/06 05:23:50;;;;;;;11.98;9.20;;;;;;;;;;5115868;28;20468;-82
2023/07/06 05:26:17;;;;;;;10.50;9.30;;;;;;;;;;5098510;28;20090;-82
2023/07/06 05:28:43;;;;;;;11.70;9.45;;;;;;;;;;5082299;28;20487;-82
2023/07/06 05:31:09;;;;;;;14.57;9.90;;;;;;;;;;5115483;28;20046;-82
2023/07/06 05:33:35;;;;;;;9.20;8.30;;;;;;;;;;5115392;28;20100;-82
2023/07/06 05:36:02;;;;;;;10.35;8.63;;;;;;;;;;5115401;28;20369;-82
2023/07/06 05:38:28;;;;;;;13.07;8.43;;;;;;;;;;5098813;28;20048;-83
2023/07/06 05:40:54;;;;;;;11.18;8.32;;;;;;;;;;5115259;28;20058;-82
2023/07/06 05:43:20;;;;;;;9.07;8.07;;;;;;;;;;5115686;28;20075;-82
2023/07/06 05:45:49;;;;;;;12.48;8.55;;;;;;;;;;5115169;28;20066;-82
2023/07/06 05:48:15;;;;;;;11.63;8.52;;;;;;;;;;5116217;28;20135;-82
2023/07/06 05:50:41;;;;;;;10.02;7.85;;;;;;;;;;5098554;28;20097;-82
2023/07/06 05:53:08;;;;;;;10.35;8.55;;;;;;;;;;5116214;28;20087;-82
2023/07/06 05:55:34;;;;;;;11.85;8.15;;;;;;;;;;5098009;28;20040;-82
2023/07/06 05:58:01;;;;;;;10.18;8.00;;;;;;;;;;5097719;28;20107;-82
2023/07/06 06:00:28;;;;;;;13.27;8.05;;;;;;;;;;5116027;28;20063;-82
2023/07/06 06:02:56;;;;;;;8.75;7.85;;;;;;;;;;5115691;28;20040;-82
2023/07/06 06:05:22;;;;;;;8.70;7.90;;;;;;;;;;5097337;28;20039;-84
2023/07/06 06:07:48;;;;;;;11.23;7.93;;;;;;;;;;5113787;28;20132;-83
2023/07/06 06:10:14;;;;;;;11.32;8.13;;;;;;;;;;5097455;28;20493;-83
2023/07/06 06:12:41;;;;;;;10.60;7.55;;;;;;;;;;5114907;28;20050;-83
2023/07/06 06:15:10;;;;;;;12.27;7.47;;;;;;;;;;5080600;28;20146;-83
2023/07/06 06:17:40;;;;;;;14.20;8.55;;;;;;;;;;5098255;28;20044;-82
2023/07/06 06:20:08;;;;;;;9.98;7.65;;;;;;;;;;5097725;28;20093;-82
2023/07/06 06:22:35;;;;;;;9.88;7.65;;;;;;;;;;5097783;28;20052;-83
2023/07/06 06:25:01;;;;;;;12.30;7.78;;;;;;;;;;5114314;28;20047;-83
2023/07/06 06:27:28;;;;;;;11.23;7.45;;;;;;;;;;5097521;28;20135;-82
2023/07/06 06:29:54;;;;;;;8.68;7.85;;;;;;;;;;5113951;28;20523;-82
2023/07/06 06:32:22;;;;;;;9.77;7.60;;;;;;;;;;5097430;28;20485;-82
2023/07/06 06:34:48;;;;;;;9.05;6.38;;;;;;;;;;5114449;28;20055;-82
2023/07/06 06:37:16;;;;;;;10.88;7.55;;;;;;;;;;5080612;28;20094;-83
2023/07/06 06:39:43;;;;;;;10.10;7.72;;;;;;;;;;5097318;28;20481;-81
2023/07/06 06:42:09;;;;;;;9.80;7.18;;;;;;;;;;5113265;28;20144;-82
2023/07/06 06:44:36;;;;;;;11.90;8.05;;;;;;;;;;5113452;28;20043;-82
2023/07/06 06:47:04;;;;;;;12.98;8.07;;;;;;;;;;5096786;28;20059;-82
2023/07/06 06:49:31;;;;;;;14.93;8.18;;;;;;;;;;5097287;28;20171;-82
2023/07/06 06:51:57;;;;;;;14.55;8.35;;;;;;;;;;5114279;28;20549;-82
2023/07/06 06:54:23;;;;;;;11.73;8.70;;;;;;;;;;5080251;28;20051;-81
2023/07/06 06:56:50;;;;;;;12.30;8.65;;;;;;;;;;5096760;28;20528;-81
2023/07/06 06:59:16;;;;;;;12.23;7.55;;;;;;;;;;5115238;28;20051;-82
2023/07/06 07:01:42;;;;;;;11.98;7.45;;;;;;;;;;5096813;28;20047;-81
2023/07/06 07:04:09;;;;;;;10.98;8.07;;;;;;;;;;5096522;28;20338;-81
2023/07/06 07:06:38;;;;;;;9.43;7.13;;;;;;;;;;5097149;28;20104;-81
2023/07/06 07:09:04;;;;;;;11.82;7.22;;;;;;;;;;5114835;28;20124;-82
2023/07/06 07:11:30;;;;;;;11.70;7.13;;;;;;;;;;5114103;28;20061;-82
2023/07/06 07:13:56;;;;;;;8.75;7.40;;;;;;;;;;5114271;28;20392;-82
2023/07/06 07:16:23;;;;;;;11.55;7.75;;;;;;;;;;5096358;28;20052;-81
2023/07/06 07:18:50;;;;;;;12.80;8.13;;;;;;;;;;5096584;28;20047;-81
2023/07/06 07:21:18;;;;;;;10.27;8.10;;;;;;;;;;5112842;28;20069;-82
2023/07/06 07:23:48;;;;;;;10.80;7.93;;;;;;;;;;5096518;28;20050;-81
2023/07/06 07:26:19;;;;;;;13.35;8.07;;;;;;;;;;5113157;28;20070;-81
2023/07/06 07:28:50;;;;;;;10.25;7.38;;;;;;;;;;5096401;28;20507;-81
2023/07/06 07:31:17;;;;;;;11.15;7.53;;;;;;;;;;5092909;28;20051;-82
2023/07/06 07:33:44;;;;;;;10.27;7.15;;;;;;;;;;5093003;28;20486;-82
2023/07/06 07:36:11;;;;;;;12.27;7.10;;;;;;;;;;5092684;28;20044;-82
2023/07/06 07:38:38;;;;;;;13.43;9.10;;;;;;;;;;5092722;28;20489;-81
2023/07/06 07:41:07;;;;;;;10.15;8.75;;;;;;;;;;5092726;28;20051;-80
2023/07/06 07:43:42;;;;;;;10.85;8.07;;;;;;;;;;5092879;28;20451;-82
2023/07/06 07:46:10;;;;;;;10.85;7.80;;;;;;;;;;5092786;28;20102;-82
2023/07/06 07:48:38;;;;;;;14.55;8.18;;;;;;;;;;5093827;28;20052;-81
2023/07/06 07:51:07;;;;;;;11.60;9.05;;;;;;;;;;5076066;28;20044;-82
2023/07/06 07:53:35;;;;;;;10.07;8.45;;;;;;;;;;5075953;28;20139;-81
2023/07/06 07:56:04;;;;;;;8.82;7.90;;;;;;;;;;5093750;28;20044;-82
2023/07/06 07:58:30;;;;;;;12.20;8.90;;;;;;;;;;5092292;28;20105;-81
2023/07/06 08:00:57;;;;;;;10.25;9.23;;;;;;;;;;5092337;28;20131;-82
2023/07/06 08:03:24;;;;;;;14.18;7.47;;;;;;;;;;5075576;28;20048;-81
2023/07/06 08:05:53;;;;;;;9.55;7.30;;;;;;;;;;5093003;28;20048;-81
2023/07/06 08:08:22;;;;;;;10.57;7.85;;;;;;;;;;5093247;28;20477;-82
2023/07/06 08:10:49;;;;;;;9.60;7.57;;;;;;;;;;5059816;28;20067;-81
2023/07/06 08:13:16;;;;;;;12.52;8.15;;;;;;;;;;5059485;28;20434;-82
2023/07/06 08:15:44;;;;;;;8.25;7.07;;;;;;;;;;5093064;28;20044;-82
2023/07/06 08:18:10;;;;;;;7.63;6.57;;;;;;;;;;5092312;28;20052;-82
2023/07/06 08:20:38;;;;;;;9.30;6.38;;;;;;;;;;5076243;28;20048;-82
2023/07/06 08:23:08;;;;;;;7.53;6.82;;;;;;;;;;5078704;28;20048;-81
2023/07/06 08:25:37;;;;;;;6.75;5.80;;;;;;;;;;5097626;28;20389;-82
2023/07/06 08:28:05;;;;;;;6.63;5.35;;;;;;;;;;5097438;28;20054;-82
2023/07/06 08:30:32;;;;;;;6.30;5.50;;;;;;;;;;5096586;28;20063;-82
2023/07/06 08:33:00;;;;;;;5.00;4.50;;;;;;;;;;5096225;28;20101;-82
2023/07/06 08:35:28;;;;;;;6.40;4.53;;;;;;;;;;5079236;28;20474;-82
2023/07/06 08:37:54;;;;;;;7.15;5.15;;;;;;;;;;5096522;28;20052;-82
2023/07/06 08:40:23;;;;;;;6.30;5.13;;;;;;;;;;5096041;28;20044;-82
2023/07/06 08:42:49;;;;;;;6.13;5.18;;;;;;;;;;5096199;28;20040;-83
2023/07/06 08:45:17;;;;;;;7.72;5.30;;;;;;;;;;5096292;28;20477;-83
2023/07/06 08:47:44;;;;;;;5.88;5.28;;;;;;;;;;5095862;28;20051;-82
2023/07/06 08:50:12;;;;;;;10.10;5.22;;;;;;;;;;5096011;28;20044;-82
2023/07/06 08:52:39;;;;;;;7.93;4.53;;;;;;;;;;5096727;28;20435;-82
2023/07/06 08:55:10;;;;;;;5.65;4.45;;;;;;;;;;5096202;28;20043;-83
2023/07/06 08:57:36;;;;;;;6.20;4.25;;;;;;;;;;5096124;28;20135;-82
2023/07/06 09:00:03;;;;;;;6.75;3.45;;;;;;;;;;5095639;28;20409;-83
2023/07/06 09:02:34;;;;;;;4.75;2.80;;;;;;;;;;5096202;28;20052;-82
2023/07/06 09:05:02;;;;;;;8.50;4.10;;;;;;;;;;5095701;28;20051;-82
2023/07/06 09:07:34;;;;;;;5.55;3.78;;;;;;;;;;5095734;28;20136;-82
2023/07/06 09:10:04;;;;;;;5.05;3.00;;;;;;;;;;5097190;28;20052;-83
2023/07/06 09:12:32;;;;;;;5.07;2.88;;;;;;;;;;5095046;28;20060;-83
2023/07/06 09:14:59;;;;;;;5.35;3.20;;;;;;;;;;5095617;28;20052;-83
2023/07/06 09:17:26;;;;;;;4.57;3.20;;;;;;;;;;5094940;28;20055;-83
2023/07/06 09:19:56;;;;;;;3.22;2.50;;;;;;;;;;5062431;28;20485;-82
2023/07/06 09:22:23;;;;;;;4.63;2.13;;;;;;;;;;5095243;28;20060;-83
2023/07/06 09:24:50;;;;;;;4.80;2.10;;;;;;;;;;5096249;28;20131;-82
2023/07/06 09:27:20;;;;;;;3.33;1.92;;;;;;;;;;5096495;28;20059;-82
2023/07/06 09:29:56;;;;;;;3.70;1.88;;;;;;;;;;5095173;28;20044;-81
2023/07/06 09:32:22;;;;;;;3.25;2.00;;;;;;;;;;5095364;28;20109;-82
2023/07/06 09:34:55;;;;;;;6.07;1.98;;;;;;;;;;5094102;28;20549;-81
2023/07/06 09:37:21;;;;;;;3.05;1.65;;;;;;;;;;5094752;28;20140;-81
2023/07/06 09:39:59;;;;;;;2.80;1.15;;;;;;;;;;5095041;28;20131;-82
2023/07/06 09:42:27;;;;;;;4.38;1.30;;;;;;;;;;5094891;28;20066;-82
2023/07/06 09:44:53;;;;;;;2.10;0.80;;;;;;;;;;5078028;28;20044;-83
2023/07/06 09:47:20;;;;;;;3.53;1.10;;;;;;;;;;5094398;28;20120;-83
2023/07/06 09:49:53;;;;;;;1.77;1.00;;;;;;;;;;5078068;28;20052;-83
2023/07/06 09:52:19;;;;;;;2.63;1.55;;;;;;;;;;5094837;28;20527;-83
2023/07/06 09:54:46;;;;;;;4.13;1.70;;;;;;;;;;5094696;28;20102;-83
2023/07/06 09:57:15;;;;;;;4.07;1.38;;;;;;;;;;5077427;28;20090;-83
2023/07/06 09:59:43;;;;;;;3.42;1.83;;;;;;;;;;5095651;28;20097;-83
2023/07/06 10:02:24;;;;;;;5.80;1.65;;;;;;;;;;5094774;28;20044;-83
2023/07/06 10:05:22;;;;;;;4.72;1.13;;;;;;;;;;5094169;28;20051;-83
2023/07/06 10:07:48;;;;;;;3.25;1.13;;;;;;;;;;5050252;28;20493;-83
2023/07/06 10:10:35;;;;;;;2.40;1.00;;;;;;;;;;5095430;28;20055;-83
2023/07/06 10:13:06;;;;;;;4.45;1.40;;;;;;;;;;5053406;28;20059;-83
2023/07/06 10:15:33;;;;;;;2.90;1.13;;;;;;;;;;5094021;28;20382;-83
2023/07/06 10:18:06;;;;;;;6.50;1.20;;;;;;;;;;5094181;28;20056;-83
2023/07/06 10:20:49;;;;;;;2.03;0.98;;;;;;;;;;5094669;28;20058;-83
2023/07/06 10:23:23;;;;;;;3.03;1.35;;;;;;;;;;5094246;28;20051;-83
2023/07/06 10:25:59;;;;;;;4.67;1.43;;;;;;;;;;5077391;28;20546;-83
2023/07/06 10:28:28;;;;;;;1.80;1.38;;;;;;;;;;5094170;28;20036;-83
2023/07/06 10:30:57;;;;;;;6.70;1.73;;;;;;;;;;5095075;28;20055;-83
2023/07/06 10:33:23;;;;;;;4.32;1.70;;;;;;;;;;5094811;28;20047;-84
2023/07/06 10:35:52;;;;;;;1.92;1.58;;;;;;;;;;5093763;28;20055;-82
2023/07/06 10:38:19;;;;;;;3.30;1.58;;;;;;;;;;5093921;28;20548;-83
2023/07/06 10:40:52;;;;;;;3.80;1.17;;;;;;;;;;5094871;28;20047;-82
2023/07/06 10:43:20;;;;;;;3.70;1.75;;;;;;;;;;5093687;28;20044;-83
2023/07/06 10:45:54;;;;;;;4.57;1.83;;;;;;;;;;5092226;28;20401;-83
2023/07/06 10:48:26;;;;;;;1.52;0.70;;;;;;;;;;5093711;28;20048;-83
2023/07/06 10:50:53;;;;;;;3.75;0.70;;;;;;;;;;5076883;28;20050;-83
2023/07/06 10:53:25;;;;;;;4.03;1.60;;;;;;;;;;5093599;28;20052;-84
2023/07/06 10:56:04;;;;;;;3.65;1.42;;;;;;;;;;5093585;28;20139;-83
2023/07/06 10:58:35;;;;;;;3.83;1.55;;;;;;;;;;5075980;28;20509;-84
2023/07/06 11:01:06;;;;;;;3.53;1.55;;;;;;;;;;5093472;28;20048;-82
2023/07/06 11:03:32;;;;;;;2.83;1.45;;;;;;;;;;5093618;28;20051;-84
2023/07/06 11:06:06;;;;;;;2.45;1.40;;;;;;;;;;5093495;28;20440;-83
2023/07/06 11:08:53;;;;;;;2.50;1.10;;;;;;;;;;5093800;28;20059;-83
2023/07/06 11:11:20;;;;;;;3.88;1.17;;;;;;;;;;5093283;28;20052;-83
2023/07/06 11:13:51;;;;;;;3.78;1.33;;;;;;;;;;5094505;28;20172;-84
2023/07/06 11:16:29;;;;;;;2.70;1.20;;;;;;;;;;5092900;28;20048;-82
2023/07/06 11:18:56;;;;;;;6.40;1.38;;;;;;;;;;5103204;27;20046;-85
2023/07/06 11:21:25;;;;;;;3.28;1.27;;;;;;;;;;5113374;28;20062;-84
2023/07/06 11:23:53;;;;;;;4.43;1.40;;;;;;;;;;5094442;28;20044;-85
2023/07/06 11:26:25;;;;;;;2.22;0.93;;;;;;;;;;5083238;28;20062;-85
2023/07/06 11:28:53;;;;;;;3.72;1.15;;;;;;;;;;5096588;28;20059;-84
2023/07/06 11:31:19;;;;;;;1.90;1.10;;;;;;;;;;5096686;28;20084;-84
2023/07/06 11:33:50;;;;;;;3.45;1.70;;;;;;;;;;5113311;28;20051;-84
2023/07/06 11:36:29;;;;;;;4.63;1.40;;;;;;;;;;5114411;28;20040;-83
2023/07/06 11:39:02;;;;;;;3.08;1.10;;;;;;;;;;5113251;28;20134;-83
2023/07/06 11:41:53;;;;;;;4.82;1.30;;;;;;;;;;5115096;28;20368;-82
2023/07/06 11:44:19;;;;;;;4.80;1.90;;;;;;;;;;5096587;28;20396;-83
2023/07/06 11:46:54;;;;;;;1.25;0.90;;;;;;;;;;5112612;28;20495;-83
2023/07/06 11:49:40;;;;;;;4.57;1.48;;;;;;;;;;5096256;28;20054;-83
2023/07/06 11:52:19;;;;;;;4.38;1.58;;;;;;;;;;5113076;28;20096;-83
2023/07/06 11:54:54;;;;;;;2.95;1.90;;;;;;;;;;5114292;28;20066;-84
2023/07/06 11:57:44;;;;;;;2.35;1.63;;;;;;;;;;5113450;28;20151;-83
2023/07/06 12:02:57;;;;;;;4.55;1.58;;;;;;;;;;5113710;28;20503;-83
2023/07/06 12:05:26;;;;;;;4.25;1.10;;;;;;;;;;5114374;28;20079;-83
2023/07/06 12:08:00;;;;;;;3.08;1.20;;;;;;;;;;5114060;28;20485;-82
2023/07/06 12:10:28;;;;;;;3.78;0.55;;;;;;;;;;5113134;28;20454;-82
2023/07/06 12:12:55;;;;;;;2.55;0.95;;;;;;;;;;5112944;28;20047;-83
2023/07/06 12:15:21;;;;;;;4.32;1.00;;;;;;;;;;5113883;28;20044;-83
2023/07/06 12:17:55;;;;;;;1.63;0.50;;;;;;;;;;5112552;28;20128;-83
2023/07/06 12:20:23;;;;;;;2.85;0.90;;;;;;;;;;5114049;28;20066;-83
2023/07/06 12:22:50;;;;;;;2.08;0.60;;;;;;;;;;5112901;28;20047;-83
2023/07/06 12:25:24;;;;;;;1.60;0.73;;;;;;;;;;5112691;28;20050;-83
2023/07/06 12:27:55;;;;;;;2.97;0.60;;;;;;;;;;5112610;28;20569;-83
2023/07/06 12:30:21;;;;;;;4.93;0.70;;;;;;;;;;5113761;28;20086;-83
2023/07/06 12:32:48;;;;;;;2.45;0.60;;;;;;;;;;5112553;28;20050;-83
2023/07/06 12:35:15;;;;;;;1.98;0.93;;;;;;;;;;5113751;28;20394;-82
2023/07/06 12:37:42;;;;;;;9.13;1.55;;;;;;;;;;5095721;28;20062;-83
2023/07/06 12:40:22;;;;;;;2.95;1.27;;;;;;;;;;5113242;28;20036;-83
2023/07/06 12:42:51;;;;;;;4.28;1.15;;;;;;;;;;5112644;28;20523;-83
2023/07/06 12:45:20;;;;;;;1.60;1.00;;;;;;;;;;5112395;28;20454;-81
2023/07/06 12:47:47;;;;;;;1.92;0.70;;;;;;;;;;5094529;28;20049;-83
2023/07/06 12:50:26;;;;;;;2.28;1.50;;;;;;;;;;5112512;28;20112;-82
2023/07/06 12:53:00;;;;;;;1.40;0.85;;;;;;;;;;5112877;28;20048;-83
2023/07/06 12:55:31;;;;;;;3.25;1.50;;;;;;;;;;5112643;28;20043;-83
2023/07/06 12:57:57;;;;;;;3.03;0.95;;;;;;;;;;5113741;28;20070;-83
2023/07/06 13:00:24;;;;;;;3.88;1.30;;;;;;;;;;5112281;28;20048;-83
2023/07/06 13:02:58;;;;;;;4.30;1.83;;;;;;;;;;5112506;28;20088;-83
2023/07/06 13:05:28;;;;;;;4.32;1.35;;;;;;;;;;5112332;28;20044;-83
2023/07/06 13:07:55;;;;;;;3.20;1.80;;;;;;;;;;5113467;28;20140;-83
2023/07/06 13:10:29;;;;;;;3.97;2.00;;;;;;;;;;5115578;28;20059;-83
2023/07/06 13:12:56;;;;;;;4.38;2.30;;;;;;;;;;5082447;28;20044;-83
2023/07/06 13:15:49;;;;;;;3.75;2.78;;;;;;;;;;5115754;28;20044;-83
2023/07/06 13:18:16;;;;;;;3.65;2.00;;;;;;;;;;5111846;28;20058;-83
2023/07/06 13:20:44;;;;;;;2.92;1.80;;;;;;;;;;5115337;28;20046;-83
2023/07/06 13:23:10;;;;;;;2.53;1.63;;;;;;;;;;5115830;28;20403;-83
2023/07/06 13:25:41;;;;;;;1.80;1.40;;;;;;;;;;5115640;28;20051;-83
2023/07/06 13:28:11;;;;;;;3.42;2.00;;;;;;;;;;5115723;28;20079;-84
2023/07/06 13:30:40;;;;;;;3.22;2.15;;;;;;;;;;5115188;28;20051;-84
2023/07/06 13:33:07;;;;;;;3.10;1.77;;;;;;;;;;5115699;28;20087;-83
2023/07/06 13:35:33;;;;;;;4.65;1.88;;;;;;;;;;5116275;28;20078;-83
2023/07/06 13:38:03;;;;;;;6.22;2.28;;;;;;;;;;5098479;28;20047;-83
2023/07/06 13:40:30;;;;;;;3.70;1.80;;;;;;;;;;5115397;28;20122;-83
2023/07/06 13:42:59;;;;;;;4.57;1.70;;;;;;;;;;5115497;28;20044;-83
2023/07/06 13:45:29;;;;;;;3.80;1.85;;;;;;;;;;5115234;28;20047;-85
2023/07/06 13:47:56;;;;;;;2.25;1.55;;;;;;;;;;5109466;28;20067;-83
2023/07/06 13:50:25;;;;;;;2.90;2.00;;;;;;;;;;5112688;28;20055;-84
2023/07/06 13:52:52;;;;;;;4.78;1.90;;;;;;;;;;5113701;27;20548;-84
2023/07/06 13:55:24;;;;;;;6.60;2.00;;;;;;;;;;5113094;28;20044;-84
2023/07/06 13:57:51;;;;;;;4.15;1.80;;;;;;;;;;5113563;28;20051;-84
2023/07/06 14:00:17;;;;;;;4.78;2.00;;;;;;;;;;5116027;28;20055;-84
2023/07/06 14:02:49;;;;;;;2.80;1.40;;;;;;;;;;5114791;28;20047;-84
2023/07/06 14:05:19;;;;;;;3.38;1.70;;;;;;;;;;5096529;28;20097;-83
2023/07/06 14:07:46;;;;;;;4.15;1.42;;;;;;;;;;5114592;28;20043;-75
2023/07/06 14:10:12;;;;;;;2.78;1.83;;;;;;;;;;5114450;28;20047;-75
2023/07/06 14:12:38;;;;;;;2.40;1.90;;;;;;;;;;5114581;28;20118;-75
2023/07/06 14:15:07;;;;;;;5.25;2.15;;;;;;;;;;5114653;28;20112;-76
2023/07/06 14:17:34;;;;;;;4.75;1.67;;;;;;;;;;5114069;28;20044;-75
2023/07/06 14:20:01;;;;;;;2.47;1.42;;;;;;;;;;5097422;28;20059;-75
2023/07/06 14:22:27;;;;;;;10.05;2.22;;;;;;;;;;5114559;28;20048;-74
2023/07/06 14:24:53;;;;;;;4.65;2.10;;;;;;;;;;5115342;28;20039;-74
2023/07/06 14:27:19;;;;;;;6.40;1.98;;;;;;;;;;5096725;28;20101;-74
2023/07/06 14:29:45;;;;;;;2.88;1.90;;;;;;;;;;5113082;28;20054;-74
2023/07/06 14:32:15;;;;;;;5.05;2.17;;;;;;;;;;5114054;28;20044;-74
2023/07/06 14:34:45;;;;;;;2.83;2.00;;;;;;;;;;5114517;28;20039;-75
2023/07/06 14:37:11;;;;;;;4.13;2.25;;;;;;;;;;5115094;28;20043;-75
2023/07/06 14:39:37;;;;;;;4.90;2.03;;;;;;;;;;5113816;28;20096;-74
2023/07/06 14:42:07;;;;;;;4.18;2.10;;;;;;;;;;5115168;28;20050;-74
2023/07/06 14:44:34;;;;;;;4.30;1.88;;;;;;;;;;5110277;28;20043;-75
2023/07/06 14:47:01;;;;;;;4.15;1.38;;;;;;;;;;5114407;28;20051;-76
2023/07/06 14:49:27;;;;;;;3.67;1.27;;;;;;;;;;5114909;28;20044;-74